sensor_id;sensor_type;location;lat;lon;timestamp;temperature;humidity
40123;DHT22;25832;45.490;4.912;2022-10-16T00:00:41;17.40;99.90
40123;DHT22;25832;45.490;4.912;2022-10-16T00:03:08;17.40;99.90
40123;DHT22;25832;45.490;4.912;2022-10-16T00:05:39;17.50;99.90
40123;DHT22;25832;45.490;4.912;2022-10-16T00:08:06;17.50;99.90
40123;DHT22;25832;45.490;4.912;2022-10-16T00:10:31;17.60;99.90
40123;DHT22;25832;45.490;4.912;2022-10-16T00:12:57;17.50;99.90
40123;DHT22;25832;45.490;4.912;2022-10-16T00:15:23;17.60;99.90
40123;DHT22;25832;45.490;4.912;2022-10-16T00:17:48;17.60;99.90
40123;DHT22;25832;45.490;4.912;2022-10-16T00:20:14;17.60;99.90
40123;DHT22;25832;45.490;4.912;2022-10-16T00:22:39;17.60;99.90
40123;DHT22;25832;45.490;4.912;2022-10-16T00:25:06;17.60;99.90
40123;DHT22;25832;45.490;4.912;2022-10-16T00:27:31;17.50;99.90
40123;DHT22;25832;45.490;4.912;2022-10-16T00:29:58;17.50;99.90
40123;DHT22;25832;45.490;4.912;2022-10-16T00:32:23;17.50;99.90
40123;DHT22;25832;45.490;4.912;2022-10-16T00:34:49;17.50;99.90
40123;DHT22;25832;45.490;4.912;2022-10-16T00:37:15;17.40;99.90
40123;DHT22;25832;45.490;4.912;2022-10-16T00:39:40;17.40;99.90
40123;DHT22;25832;45.490;4.912;2022-10-16T00:42:06;17.40;99.90
40123;DHT22;25832;45.490;4.912;2022-10-16T00:44:50;17.40;99.90
40123;DHT22;25832;45.490;4.912;2022-10-16T00:47:24;17.30;99.90
40123;DHT22;25832;45.490;4.912;2022-10-16T00:49:55;17.40;99.90
40123;DHT22;25832;45.490;4.912;2022-10-16T00:52:22;17.30;99.90
40123;DHT22;25832;45.490;4.912;2022-10-16T00:54:49;17.30;99.90
40123;DHT22;25832;45.490;4.912;2022-10-16T00:57:15;17.30;99.90
40123;DHT22;25832;45.490;4.912;2022-10-16T00:59:42;17.30;99.90
40123;DHT22;25832;45.490;4.912;2022-10-16T01:02:11;17.30;99.90
40123;DHT22;25832;45.490;4.912;2022-10-16T01:04:49;17.20;99.90
40123;DHT22;25832;45.490;4.912;2022-10-16T01:12:45;17.10;99.90
40123;DHT22;25832;45.490;4.912;2022-10-16T01:15:34;17.10;99.90
40123;DHT22;25832;45.490;4.912;2022-10-16T01:20:46;17.00;99.90
40123;DHT22;25832;45.490;4.912;2022-10-16T01:28:25;16.80;99.90
40123;DHT22;25832;45.490;4.912;2022-10-16T01:30:57;16.70;99.90
40123;DHT22;25832;45.490;4.912;2022-10-16T01:33:24;16.60;99.90
40123;DHT22;25832;45.490;4.912;2022-10-16T01:35:53;16.60;99.90
40123;DHT22;25832;45.490;4.912;2022-10-16T01:38:33;16.50;99.90
40123;DHT22;25832;45.490;4.912;2022-10-16T01:41:11;16.50;99.90
40123;DHT22;25832;45.490;4.912;2022-10-16T01:43:45;16.50;99.90
40123;DHT22;25832;45.490;4.912;2022-10-16T01:46:13;16.40;99.90
40123;DHT22;25832;45.490;4.912;2022-10-16T01:48:41;16.40;99.90
40123;DHT22;25832;45.490;4.912;2022-10-16T01:51:10;16.50;99.90
40123;DHT22;25832;45.490;4.912;2022-10-16T01:53:38;16.50;99.90
40123;DHT22;25832;45.490;4.912;2022-10-16T01:56:08;16.50;99.90
40123;DHT22;25832;45.490;4.912;2022-10-16T01:58:40;16.50;99.90
40123;DHT22;25832;45.490;4.912;2022-10-16T02:01:08;16.60;99.90
40123;DHT22;25832;45.490;4.912;2022-10-16T02:03:39;16.50;99.90
40123;DHT22;25832;45.490;4.912;2022-10-16T02:06:06;16.50;99.90
40123;DHT22;25832;45.490;4.912;2022-10-16T02:08:32;16.50;99.90
40123;DHT22;25832;45.490;4.912;2022-10-16T02:11:00;16.40;99.90
40123;DHT22;25832;45.490;4.912;2022-10-16T02:13:40;16.40;99.90
40123;DHT22;25832;45.490;4.912;2022-10-16T02:16:09;16.40;99.90
40123;DHT22;25832;45.490;4.912;2022-10-16T02:18:35;16.40;99.90
40123;DHT22;25832;45.490;4.912;2022-10-16T02:21:11;16.40;99.90
40123;DHT22;25832;45.490;4.912;2022-10-16T02:24:08;16.40;99.90
40123;DHT22;25832;45.490;4.912;2022-10-16T02:26:49;16.40;99.90
40123;DHT22;25832;45.490;4.912;2022-10-16T02:29:20;16.50;99.90
40123;DHT22;25832;45.490;4.912;2022-10-16T02:31:50;16.50;99.90
40123;DHT22;25832;45.490;4.912;2022-10-16T02:34:18;16.50;99.90
40123;DHT22;25832;45.490;4.912;2022-10-16T02:36:44;16.50;99.90
40123;DHT22;25832;45.490;4.912;2022-10-16T02:39:11;16.50;99.90
40123;DHT22;25832;45.490;4.912;2022-10-16T02:41:37;16.50;99.90
40123;DHT22;25832;45.490;4.912;2022-10-16T02:44:03;16.50;99.90
40123;DHT22;25832;45.490;4.912;2022-10-16T02:46:29;16.50;99.90
40123;DHT22;25832;45.490;4.912;2022-10-16T02:48:55;16.50;99.90
40123;DHT22;25832;45.490;4.912;2022-10-16T02:51:20;16.50;99.90
40123;DHT22;25832;45.490;4.912;2022-10-16T02:53:46;16.50;99.90
40123;DHT22;25832;45.490;4.912;2022-10-16T02:56:12;16.60;99.90
40123;DHT22;25832;45.490;4.912;2022-10-16T02:58:37;16.60;99.90
40123;DHT22;25832;45.490;4.912;2022-10-16T03:01:03;16.70;99.90
40123;DHT22;25832;45.490;4.912;2022-10-16T03:03:29;16.60;99.90
40123;DHT22;25832;45.490;4.912;2022-10-16T03:05:54;16.60;99.90
40123;DHT22;25832;45.490;4.912;2022-10-16T03:08:20;16.60;99.90
40123;DHT22;25832;45.490;4.912;2022-10-16T03:10:49;16.60;99.90
40123;DHT22;25832;45.490;4.912;2022-10-16T03:13:15;16.60;99.90
40123;DHT22;25832;45.490;4.912;2022-10-16T03:15:41;16.60;99.90
40123;DHT22;25832;45.490;4.912;2022-10-16T03:18:06;16.60;99.90
40123;DHT22;25832;45.490;4.912;2022-10-16T03:20:32;16.60;99.90
40123;DHT22;25832;45.490;4.912;2022-10-16T03:22:58;16.60;99.90
40123;DHT22;25832;45.490;4.912;2022-10-16T03:25:24;16.50;99.90
40123;DHT22;25832;45.490;4.912;2022-10-16T03:27:49;16.50;99.90
40123;DHT22;25832;45.490;4.912;2022-10-16T03:30:15;16.50;99.90
40123;DHT22;25832;45.490;4.912;2022-10-16T03:32:43;16.50;99.90
40123;DHT22;25832;45.490;4.912;2022-10-16T03:35:08;16.50;99.90
40123;DHT22;25832;45.490;4.912;2022-10-16T03:37:34;16.50;99.90
40123;DHT22;25832;45.490;4.912;2022-10-16T03:40:00;16.50;99.90
40123;DHT22;25832;45.490;4.912;2022-10-16T03:42:26;16.40;99.90
40123;DHT22;25832;45.490;4.912;2022-10-16T03:44:52;16.50;99.90
40123;DHT22;25832;45.490;4.912;2022-10-16T03:47:17;16.40;99.90
40123;DHT22;25832;45.490;4.912;2022-10-16T03:49:47;16.40;99.90
40123;DHT22;25832;45.490;4.912;2022-10-16T03:52:13;16.40;99.90
40123;DHT22;25832;45.490;4.912;2022-10-16T03:54:38;16.40;99.90
40123;DHT22;25832;45.490;4.912;2022-10-16T03:57:04;16.40;99.90
40123;DHT22;25832;45.490;4.912;2022-10-16T03:59:30;16.40;99.90
40123;DHT22;25832;45.490;4.912;2022-10-16T04:01:55;16.40;99.90
40123;DHT22;25832;45.490;4.912;2022-10-16T04:04:21;16.40;99.90
40123;DHT22;25832;45.490;4.912;2022-10-16T04:06:47;16.50;99.90
40123;DHT22;25832;45.490;4.912;2022-10-16T04:09:12;16.40;99.90
40123;DHT22;25832;45.490;4.912;2022-10-16T04:11:38;16.40;99.90
40123;DHT22;25832;45.490;4.912;2022-10-16T04:14:04;16.40;99.90
40123;DHT22;25832;45.490;4.912;2022-10-16T04:16:30;16.40;99.90
40123;DHT22;25832;45.490;4.912;2022-10-16T04:18:55;16.40;99.90
40123;DHT22;25832;45.490;4.912;2022-10-16T04:21:21;16.40;99.90
40123;DHT22;25832;45.490;4.912;2022-10-16T04:23:47;16.40;99.90
40123;DHT22;25832;45.490;4.912;2022-10-16T04:26:14;16.40;99.90
40123;DHT22;25832;45.490;4.912;2022-10-16T04:28:39;16.40;99.90
40123;DHT22;25832;45.490;4.912;2022-10-16T04:31:06;16.40;99.90
40123;DHT22;25832;45.490;4.912;2022-10-16T04:33:32;16.40;99.90
40123;DHT22;25832;45.490;4.912;2022-10-16T04:35:59;16.30;99.90
40123;DHT22;25832;45.490;4.912;2022-10-16T04:38:25;16.30;99.90
40123;DHT22;25832;45.490;4.912;2022-10-16T04:40:51;16.30;99.90
40123;DHT22;25832;45.490;4.912;2022-10-16T04:43:17;16.30;99.90
40123;DHT22;25832;45.490;4.912;2022-10-16T04:45:43;16.30;99.90
40123;DHT22;25832;45.490;4.912;2022-10-16T04:48:09;16.30;99.90
40123;DHT22;25832;45.490;4.912;2022-10-16T04:50:34;16.40;99.90
40123;DHT22;25832;45.490;4.912;2022-10-16T04:53:00;16.40;99.90
40123;DHT22;25832;45.490;4.912;2022-10-16T04:55:26;16.40;99.90
40123;DHT22;25832;45.490;4.912;2022-10-16T04:57:51;16.40;99.90
40123;DHT22;25832;45.490;4.912;2022-10-16T05:00:17;16.40;99.90
40123;DHT22;25832;45.490;4.912;2022-10-16T05:02:43;16.40;99.90
40123;DHT22;25832;45.490;4.912;2022-10-16T05:05:08;16.40;99.90
40123;DHT22;25832;45.490;4.912;2022-10-16T05:07:34;16.40;99.90
40123;DHT22;25832;45.490;4.912;2022-10-16T05:10:00;16.40;99.90
40123;DHT22;25832;45.490;4.912;2022-10-16T05:12:25;16.40;99.90
40123;DHT22;25832;45.490;4.912;2022-10-16T05:14:51;16.40;99.90
40123;DHT22;25832;45.490;4.912;2022-10-16T05:17:16;16.30;99.90
40123;DHT22;25832;45.490;4.912;2022-10-16T05:19:42;16.40;99.90
40123;DHT22;25832;45.490;4.912;2022-10-16T05:22:08;16.30;99.90
40123;DHT22;25832;45.490;4.912;2022-10-16T05:24:34;16.30;99.90
40123;DHT22;25832;45.490;4.912;2022-10-16T05:26:59;16.30;99.90
40123;DHT22;25832;45.490;4.912;2022-10-16T05:29:25;16.30;99.90
40123;DHT22;25832;45.490;4.912;2022-10-16T05:31:52;16.40;99.90
40123;DHT22;25832;45.490;4.912;2022-10-16T05:34:18;16.40;99.90
40123;DHT22;25832;45.490;4.912;2022-10-16T05:36:44;16.40;99.90
40123;DHT22;25832;45.490;4.912;2022-10-16T05:39:10;16.40;99.90
40123;DHT22;25832;45.490;4.912;2022-10-16T05:41:36;16.50;99.90
40123;DHT22;25832;45.490;4.912;2022-10-16T05:44:05;16.50;99.90
40123;DHT22;25832;45.490;4.912;2022-10-16T05:46:31;16.50;99.90
40123;DHT22;25832;45.490;4.912;2022-10-16T05:48:57;16.60;99.90
40123;DHT22;25832;45.490;4.912;2022-10-16T05:51:23;16.60;99.90
40123;DHT22;25832;45.490;4.912;2022-10-16T05:53:49;16.60;99.90
40123;DHT22;25832;45.490;4.912;2022-10-16T05:56:15;16.60;99.90
40123;DHT22;25832;45.490;4.912;2022-10-16T05:58:41;16.70;99.90
40123;DHT22;25832;45.490;4.912;2022-10-16T06:01:11;16.70;99.90
40123;DHT22;25832;45.490;4.912;2022-10-16T06:03:37;16.70;99.90
40123;DHT22;25832;45.490;4.912;2022-10-16T06:06:14;16.80;99.90
40123;DHT22;25832;45.490;4.912;2022-10-16T06:08:41;16.80;99.90
40123;DHT22;25832;45.490;4.912;2022-10-16T06:11:09;16.80;99.90
40123;DHT22;25832;45.490;4.912;2022-10-16T06:13:35;16.80;99.90
40123;DHT22;25832;45.490;4.912;2022-10-16T06:16:02;16.80;99.90
40123;DHT22;25832;45.490;4.912;2022-10-16T06:18:29;17.00;99.90
40123;DHT22;25832;45.490;4.912;2022-10-16T06:20:56;17.10;99.90
40123;DHT22;25832;45.490;4.912;2022-10-16T06:23:23;17.30;99.90
40123;DHT22;25832;45.490;4.912;2022-10-16T06:25:48;17.40;99.90
40123;DHT22;25832;45.490;4.912;2022-10-16T06:28:15;17.60;99.90
40123;DHT22;25832;45.490;4.912;2022-10-16T06:30:41;17.70;99.90
40123;DHT22;25832;45.490;4.912;2022-10-16T06:33:09;17.80;99.90
40123;DHT22;25832;45.490;4.912;2022-10-16T06:35:35;18.00;99.90
40123;DHT22;25832;45.490;4.912;2022-10-16T06:38:01;18.10;99.90
40123;DHT22;25832;45.490;4.912;2022-10-16T06:40:27;18.30;99.90
40123;DHT22;25832;45.490;4.912;2022-10-16T06:42:55;18.40;99.90
40123;DHT22;25832;45.490;4.912;2022-10-16T06:45:20;18.50;99.90
40123;DHT22;25832;45.490;4.912;2022-10-16T06:47:46;18.50;99.90
40123;DHT22;25832;45.490;4.912;2022-10-16T06:50:11;18.50;99.90
40123;DHT22;25832;45.490;4.912;2022-10-16T06:52:37;18.50;99.90
40123;DHT22;25832;45.490;4.912;2022-10-16T06:55:03;18.50;99.90
40123;DHT22;25832;45.490;4.912;2022-10-16T06:57:29;18.50;99.90
40123;DHT22;25832;45.490;4.912;2022-10-16T06:59:54;18.50;99.90
40123;DHT22;25832;45.490;4.912;2022-10-16T07:02:20;18.40;99.90
40123;DHT22;25832;45.490;4.912;2022-10-16T07:04:46;18.30;99.90
40123;DHT22;25832;45.490;4.912;2022-10-16T07:07:12;18.30;99.90
40123;DHT22;25832;45.490;4.912;2022-10-16T07:09:37;18.20;99.90
40123;DHT22;25832;45.490;4.912;2022-10-16T07:12:03;18.20;99.90
40123;DHT22;25832;45.490;4.912;2022-10-16T07:14:29;18.10;99.90
40123;DHT22;25832;45.490;4.912;2022-10-16T07:16:55;18.10;99.90
40123;DHT22;25832;45.490;4.912;2022-10-16T07:19:21;18.20;99.90
40123;DHT22;25832;45.490;4.912;2022-10-16T07:21:46;18.20;99.90
40123;DHT22;25832;45.490;4.912;2022-10-16T07:24:14;18.20;99.90
40123;DHT22;25832;45.490;4.912;2022-10-16T07:26:41;18.20;99.90
40123;DHT22;25832;45.490;4.912;2022-10-16T07:29:12;18.40;99.90
40123;DHT22;25832;45.490;4.912;2022-10-16T07:31:38;18.40;99.90
40123;DHT22;25832;45.490;4.912;2022-10-16T07:34:05;18.60;99.90
40123;DHT22;25832;45.490;4.912;2022-10-16T07:36:30;18.70;99.90
40123;DHT22;25832;45.490;4.912;2022-10-16T07:38:56;18.80;99.90
40123;DHT22;25832;45.490;4.912;2022-10-16T07:41:22;18.90;99.90
40123;DHT22;25832;45.490;4.912;2022-10-16T07:43:49;19.00;99.90
40123;DHT22;25832;45.490;4.912;2022-10-16T07:46:15;19.10;99.90
40123;DHT22;25832;45.490;4.912;2022-10-16T07:48:42;19.20;99.90
40123;DHT22;25832;45.490;4.912;2022-10-16T07:51:11;19.30;99.90
40123;DHT22;25832;45.490;4.912;2022-10-16T07:53:37;19.40;99.90
40123;DHT22;25832;45.490;4.912;2022-10-16T07:56:05;19.40;99.90
40123;DHT22;25832;45.490;4.912;2022-10-16T07:58:32;19.30;99.90
40123;DHT22;25832;45.490;4.912;2022-10-16T08:00:58;19.30;99.90
40123;DHT22;25832;45.490;4.912;2022-10-16T08:03:25;19.30;99.90
40123;DHT22;25832;45.490;4.912;2022-10-16T08:05:51;19.30;99.90
40123;DHT22;25832;45.490;4.912;2022-10-16T08:08:18;19.40;99.90
40123;DHT22;25832;45.490;4.912;2022-10-16T08:10:44;19.50;99.90
40123;DHT22;25832;45.490;4.912;2022-10-16T08:13:10;19.60;99.90
40123;DHT22;25832;45.490;4.912;2022-10-16T08:15:36;19.70;99.90
40123;DHT22;25832;45.490;4.912;2022-10-16T08:18:04;19.70;99.90
40123;DHT22;25832;45.490;4.912;2022-10-16T08:20:31;19.80;99.90
40123;DHT22;25832;45.490;4.912;2022-10-16T08:22:57;19.80;99.90
40123;DHT22;25832;45.490;4.912;2022-10-16T08:25:25;19.90;99.90
40123;DHT22;25832;45.490;4.912;2022-10-16T08:27:50;19.90;99.90
40123;DHT22;25832;45.490;4.912;2022-10-16T08:30:18;20.00;99.90
40123;DHT22;25832;45.490;4.912;2022-10-16T08:32:44;20.10;99.90
40123;DHT22;25832;45.490;4.912;2022-10-16T08:35:10;20.10;99.90
40123;DHT22;25832;45.490;4.912;2022-10-16T08:37:37;20.20;99.90
40123;DHT22;25832;45.490;4.912;2022-10-16T08:40:04;20.30;99.90
40123;DHT22;25832;45.490;4.912;2022-10-16T08:45:34;20.30;99.90
40123;DHT22;25832;45.490;4.912;2022-10-16T08:48:35;20.40;99.90
40123;DHT22;25832;45.490;4.912;2022-10-16T08:51:08;20.50;99.90
40123;DHT22;25832;45.490;4.912;2022-10-16T08:56:22;20.60;99.90
40123;DHT22;25832;45.490;4.912;2022-10-16T08:58:48;20.70;99.90
40123;DHT22;25832;45.490;4.912;2022-10-16T09:01:17;20.80;99.90
40123;DHT22;25832;45.490;4.912;2022-10-16T09:04:01;20.90;99.90
40123;DHT22;25832;45.490;4.912;2022-10-16T09:06:56;20.90;99.90
40123;DHT22;25832;45.490;4.912;2022-10-16T09:23:39;21.30;99.90
40123;DHT22;25832;45.490;4.912;2022-10-16T09:26:10;21.30;99.90
40123;DHT22;25832;45.490;4.912;2022-10-16T09:28:36;21.30;99.90
40123;DHT22;25832;45.490;4.912;2022-10-16T09:31:02;21.40;99.90
40123;DHT22;25832;45.490;4.912;2022-10-16T09:33:36;21.40;99.90
40123;DHT22;25832;45.490;4.912;2022-10-16T09:36:04;21.40;99.90
40123;DHT22;25832;45.490;4.912;2022-10-16T09:38:33;21.50;99.90
40123;DHT22;25832;45.490;4.912;2022-10-16T09:41:17;21.50;99.90
40123;DHT22;25832;45.490;4.912;2022-10-16T09:43:52;21.60;99.90
40123;DHT22;25832;45.490;4.912;2022-10-16T09:46:26;21.70;99.90
40123;DHT22;25832;45.490;4.912;2022-10-16T09:48:56;21.80;99.90
40123;DHT22;25832;45.490;4.912;2022-10-16T09:51:28;21.80;99.60
40123;DHT22;25832;45.490;4.912;2022-10-16T09:54:00;21.90;99.10
40123;DHT22;25832;45.490;4.912;2022-10-16T09:56:33;22.10;98.80
40123;DHT22;25832;45.490;4.912;2022-10-16T09:59:08;22.10;98.50
40123;DHT22;25832;45.490;4.912;2022-10-16T10:01:40;22.20;98.30
40123;DHT22;25832;45.490;4.912;2022-10-16T10:04:07;22.30;97.90
40123;DHT22;25832;45.490;4.912;2022-10-16T10:06:40;22.40;98.10
40123;DHT22;25832;45.490;4.912;2022-10-16T10:09:24;22.50;97.40
40123;DHT22;25832;45.490;4.912;2022-10-16T10:11:52;22.60;97.30
40123;DHT22;25832;45.490;4.912;2022-10-16T10:14:37;22.60;97.10
40123;DHT22;25832;45.490;4.912;2022-10-16T10:19:59;22.70;97.30
40123;DHT22;25832;45.490;4.912;2022-10-16T10:22:31;22.70;97.20
40123;DHT22;25832;45.490;4.912;2022-10-16T10:27:46;22.80;98.00
40123;DHT22;25832;45.490;4.912;2022-10-16T10:46:35;23.10;98.90
40123;DHT22;25832;45.490;4.912;2022-10-16T10:55:09;22.90;99.30
40123;DHT22;25832;45.490;4.912;2022-10-16T10:57:28;22.90;99.50
40123;DHT22;25832;45.490;4.912;2022-10-16T11:03:07;22.90;99.60
40123;DHT22;25832;45.490;4.912;2022-10-16T11:08:40;23.00;99.90
40123;DHT22;25832;45.490;4.912;2022-10-16T11:11:24;23.00;99.90
40123;DHT22;25832;45.490;4.912;2022-10-16T11:14:01;23.00;99.90
40123;DHT22;25832;45.490;4.912;2022-10-16T11:16:43;23.00;99.90
40123;DHT22;25832;45.490;4.912;2022-10-16T11:19:28;23.10;99.90
40123;DHT22;25832;45.490;4.912;2022-10-16T11:22:03;23.10;99.90
40123;DHT22;25832;45.490;4.912;2022-10-16T11:30:26;23.20;99.70
40123;DHT22;25832;45.490;4.912;2022-10-16T11:38:02;23.00;99.80
40123;DHT22;25832;45.490;4.912;2022-10-16T11:40:31;23.00;99.90
40123;DHT22;25832;45.490;4.912;2022-10-16T11:43:22;22.90;99.50
40123;DHT22;25832;45.490;4.912;2022-10-16T11:45:53;22.80;99.90
40123;DHT22;25832;45.490;4.912;2022-10-16T11:48:32;22.80;99.90
40123;DHT22;25832;45.490;4.912;2022-10-16T11:51:21;22.70;99.90
40123;DHT22;25832;45.490;4.912;2022-10-16T11:54:43;22.70;99.90
40123;DHT22;25832;45.490;4.912;2022-10-16T11:56:45;22.80;99.90
40123;DHT22;25832;45.490;4.912;2022-10-16T11:59:21;22.90;99.90
40123;DHT22;25832;45.490;4.912;2022-10-16T12:04:42;23.00;99.60
40123;DHT22;25832;45.490;4.912;2022-10-16T12:07:23;23.00;99.00
40123;DHT22;25832;45.490;4.912;2022-10-16T12:09:50;23.00;99.50
40123;DHT22;25832;45.490;4.912;2022-10-16T12:15:28;22.90;99.20
40123;DHT22;25832;45.490;4.912;2022-10-16T12:17:54;22.90;99.90
40123;DHT22;25832;45.490;4.912;2022-10-16T12:23:02;23.00;99.90
40123;DHT22;25832;45.490;4.912;2022-10-16T12:25:36;23.10;99.50
40123;DHT22;25832;45.490;4.912;2022-10-16T12:28:20;23.20;99.70
40123;DHT22;25832;45.490;4.912;2022-10-16T12:30:55;23.20;99.20
40123;DHT22;25832;45.490;4.912;2022-10-16T12:33:24;23.10;99.20
40123;DHT22;25832;45.490;4.912;2022-10-16T12:35:50;23.10;99.30
40123;DHT22;25832;45.490;4.912;2022-10-16T12:38:21;23.20;99.40
40123;DHT22;25832;45.490;4.912;2022-10-16T12:41:07;23.10;99.20
40123;DHT22;25832;45.490;4.912;2022-10-16T12:43:45;23.10;99.30
40123;DHT22;25832;45.490;4.912;2022-10-16T12:48:42;23.10;99.20
40123;DHT22;25832;45.490;4.912;2022-10-16T12:54:01;23.10;99.20
40123;DHT22;25832;45.490;4.912;2022-10-16T13:00:09;23.10;99.50
40123;DHT22;25832;45.490;4.912;2022-10-16T13:08:57;23.10;99.10
40123;DHT22;25832;45.490;4.912;2022-10-16T13:25:29;23.20;98.90
40123;DHT22;25832;45.490;4.912;2022-10-16T13:28:03;23.20;99.00
40123;DHT22;25832;45.490;4.912;2022-10-16T13:30:42;23.20;98.90
40123;DHT22;25832;45.490;4.912;2022-10-16T13:33:19;23.30;99.10
40123;DHT22;25832;45.490;4.912;2022-10-16T13:35:53;23.30;98.70
40123;DHT22;25832;45.490;4.912;2022-10-16T13:38:25;23.30;98.40
40123;DHT22;25832;45.490;4.912;2022-10-16T13:41:02;23.20;98.50
40123;DHT22;25832;45.490;4.912;2022-10-16T13:48:28;23.10;99.00
40123;DHT22;25832;45.490;4.912;2022-10-16T13:53:25;23.10;98.90
40123;DHT22;25832;45.490;4.912;2022-10-16T13:55:51;23.10;98.80
40123;DHT22;25832;45.490;4.912;2022-10-16T13:58:17;23.10;98.80
40123;DHT22;25832;45.490;4.912;2022-10-16T14:03:41;23.30;98.60
40123;DHT22;25832;45.490;4.912;2022-10-16T14:06:15;23.20;98.30
40123;DHT22;25832;45.490;4.912;2022-10-16T14:08:46;23.20;98.10
40123;DHT22;25832;45.490;4.912;2022-10-16T14:11:23;23.20;98.00
40123;DHT22;25832;45.490;4.912;2022-10-16T14:13:50;23.20;98.00
40123;DHT22;25832;45.490;4.912;2022-10-16T14:16:36;23.10;98.20
40123;DHT22;25832;45.490;4.912;2022-10-16T14:19:05;23.10;97.90
40123;DHT22;25832;45.490;4.912;2022-10-16T14:21:33;23.00;98.10
40123;DHT22;25832;45.490;4.912;2022-10-16T14:23:59;23.00;98.40
40123;DHT22;25832;45.490;4.912;2022-10-16T14:26:28;23.00;98.30
40123;DHT22;25832;45.490;4.912;2022-10-16T14:29:15;22.90;98.40
40123;DHT22;25832;45.490;4.912;2022-10-16T14:31:43;22.80;98.60
40123;DHT22;25832;45.490;4.912;2022-10-16T14:36:50;22.90;99.20
40123;DHT22;25832;45.490;4.912;2022-10-16T14:39:21;22.90;99.10
40123;DHT22;25832;45.490;4.912;2022-10-16T14:41:49;23.00;99.00
40123;DHT22;25832;45.490;4.912;2022-10-16T14:44:17;23.00;99.00
40123;DHT22;25832;45.490;4.912;2022-10-16T14:46:43;23.10;99.20
40123;DHT22;25832;45.490;4.912;2022-10-16T14:51:36;23.20;98.00
40123;DHT22;25832;45.490;4.912;2022-10-16T14:54:02;23.20;97.90
40123;DHT22;25832;45.490;4.912;2022-10-16T14:56:35;23.20;97.70
40123;DHT22;25832;45.490;4.912;2022-10-16T14:59:23;23.10;98.20
40123;DHT22;25832;45.490;4.912;2022-10-16T15:01:50;23.10;97.90
40123;DHT22;25832;45.490;4.912;2022-10-16T15:04:16;23.10;97.60
40123;DHT22;25832;45.490;4.912;2022-10-16T15:06:42;23.00;97.50
40123;DHT22;25832;45.490;4.912;2022-10-16T15:09:08;23.10;97.80
40123;DHT22;25832;45.490;4.912;2022-10-16T15:11:33;23.00;97.80
40123;DHT22;25832;45.490;4.912;2022-10-16T15:13:59;23.00;97.70
40123;DHT22;25832;45.490;4.912;2022-10-16T15:16:25;23.00;97.80
40123;DHT22;25832;45.490;4.912;2022-10-16T15:18:50;22.90;98.10
40123;DHT22;25832;45.490;4.912;2022-10-16T15:21:28;22.90;97.90
40123;DHT22;25832;45.490;4.912;2022-10-16T15:23:54;22.80;98.00
40123;DHT22;25832;45.490;4.912;2022-10-16T15:26:23;22.80;98.00
40123;DHT22;25832;45.490;4.912;2022-10-16T15:28:48;22.70;98.00
40123;DHT22;25832;45.490;4.912;2022-10-16T15:31:14;22.70;98.10
40123;DHT22;25832;45.490;4.912;2022-10-16T15:33:40;22.70;98.40
40123;DHT22;25832;45.490;4.912;2022-10-16T15:36:06;22.70;98.40
40123;DHT22;25832;45.490;4.912;2022-10-16T15:38:32;22.70;98.40
40123;DHT22;25832;45.490;4.912;2022-10-16T15:40:58;22.70;98.20
40123;DHT22;25832;45.490;4.912;2022-10-16T15:43:24;22.60;98.30
40123;DHT22;25832;45.490;4.912;2022-10-16T15:46:01;22.60;98.20
40123;DHT22;25832;45.490;4.912;2022-10-16T15:48:28;22.50;98.30
40123;DHT22;25832;45.490;4.912;2022-10-16T15:50:54;22.40;98.30
40123;DHT22;25832;45.490;4.912;2022-10-16T15:53:20;22.30;98.50
40123;DHT22;25832;45.490;4.912;2022-10-16T15:55:46;22.20;98.60
40123;DHT22;25832;45.490;4.912;2022-10-16T15:58:11;22.10;98.70
40123;DHT22;25832;45.490;4.912;2022-10-16T16:00:37;22.10;99.00
40123;DHT22;25832;45.490;4.912;2022-10-16T16:03:03;22.00;99.10
40123;DHT22;25832;45.490;4.912;2022-10-16T16:05:29;21.90;99.00
40123;DHT22;25832;45.490;4.912;2022-10-16T16:07:54;21.90;99.20
40123;DHT22;25832;45.490;4.912;2022-10-16T16:10:21;21.80;99.00
40123;DHT22;25832;45.490;4.912;2022-10-16T16:12:48;21.80;99.00
40123;DHT22;25832;45.490;4.912;2022-10-16T16:15:20;21.80;99.00
40123;DHT22;25832;45.490;4.912;2022-10-16T16:17:45;21.80;99.20
40123;DHT22;25832;45.490;4.912;2022-10-16T16:20:12;21.80;98.90
40123;DHT22;25832;45.490;4.912;2022-10-16T16:22:37;21.80;99.10
40123;DHT22;25832;45.490;4.912;2022-10-16T16:25:03;21.70;99.10
40123;DHT22;25832;45.490;4.912;2022-10-16T16:27:29;21.70;99.30
40123;DHT22;25832;45.490;4.912;2022-10-16T16:29:59;21.60;99.30
40123;DHT22;25832;45.490;4.912;2022-10-16T16:32:25;21.50;99.50
40123;DHT22;25832;45.490;4.912;2022-10-16T16:34:50;21.50;99.70
40123;DHT22;25832;45.490;4.912;2022-10-16T16:37:16;21.40;99.70
40123;DHT22;25832;45.490;4.912;2022-10-16T16:39:42;21.40;99.90
40123;DHT22;25832;45.490;4.912;2022-10-16T16:42:08;21.30;99.90
40123;DHT22;25832;45.490;4.912;2022-10-16T16:44:35;21.30;99.90
40123;DHT22;25832;45.490;4.912;2022-10-16T16:47:02;21.30;99.90
40123;DHT22;25832;45.490;4.912;2022-10-16T16:49:28;21.20;99.90
40123;DHT22;25832;45.490;4.912;2022-10-16T16:51:53;21.20;99.90
40123;DHT22;25832;45.490;4.912;2022-10-16T16:54:19;21.10;99.90
40123;DHT22;25832;45.490;4.912;2022-10-16T16:56:45;21.10;99.90
40123;DHT22;25832;45.490;4.912;2022-10-16T16:59:16;21.10;99.90
40123;DHT22;25832;45.490;4.912;2022-10-16T17:01:43;21.00;99.90
40123;DHT22;25832;45.490;4.912;2022-10-16T17:04:09;21.00;99.90
40123;DHT22;25832;45.490;4.912;2022-10-16T17:06:36;21.00;99.90
40123;DHT22;25832;45.490;4.912;2022-10-16T17:09:03;21.00;99.90
40123;DHT22;25832;45.490;4.912;2022-10-16T17:11:30;21.00;99.90
40123;DHT22;25832;45.490;4.912;2022-10-16T17:13:57;20.90;99.90
40123;DHT22;25832;45.490;4.912;2022-10-16T17:16:25;20.90;99.90
40123;DHT22;25832;45.490;4.912;2022-10-16T17:18:51;20.90;99.90
40123;DHT22;25832;45.490;4.912;2022-10-16T17:21:18;20.90;99.90
40123;DHT22;25832;45.490;4.912;2022-10-16T17:23:45;20.90;99.90
40123;DHT22;25832;45.490;4.912;2022-10-16T17:26:13;20.90;99.90
40123;DHT22;25832;45.490;4.912;2022-10-16T17:28:39;20.80;99.90
40123;DHT22;25832;45.490;4.912;2022-10-16T17:33:37;20.80;99.90
40123;DHT22;25832;45.490;4.912;2022-10-16T17:36:03;20.70;99.90
40123;DHT22;25832;45.490;4.912;2022-10-16T17:38:28;20.70;99.90
40123;DHT22;25832;45.490;4.912;2022-10-16T17:40:54;20.70;99.90
40123;DHT22;25832;45.490;4.912;2022-10-16T17:43:20;20.70;99.90
40123;DHT22;25832;45.490;4.912;2022-10-16T17:45:46;20.60;99.90
40123;DHT22;25832;45.490;4.912;2022-10-16T17:48:12;20.60;99.90
40123;DHT22;25832;45.490;4.912;2022-10-16T17:50:41;20.50;99.90
40123;DHT22;25832;45.490;4.912;2022-10-16T17:53:07;20.50;99.90